createdAt,value
2019-04-28T00:00:17.473Z,7.50
2019-04-28T00:02:46.595Z,7.40
2019-04-28T00:05:15.605Z,7.50
2019-04-28T00:07:44.639Z,7.40
2019-04-28T00:10:14.428Z,7.30
2019-04-28T00:12:43.578Z,7.30
2019-04-28T00:15:12.657Z,7.40
2019-04-28T00:17:42.032Z,7.40
2019-04-28T00:20:13.217Z,7.40
2019-04-28T00:22:56.097Z,7.50
2019-04-28T00:25:31.124Z,7.50
2019-04-28T00:28:01.651Z,7.50
2019-04-28T00:30:31.688Z,7.60
2019-04-28T00:33:01.802Z,7.60
2019-04-28T00:35:32.194Z,7.60
2019-04-28T00:38:01.578Z,7.60
2019-04-28T00:40:31.666Z,7.60
2019-04-28T00:43:01.142Z,7.60
2019-04-28T00:45:31.382Z,7.60
2019-04-28T00:48:01.092Z,7.60
2019-04-28T00:50:31.611Z,7.60
2019-04-28T00:53:01.753Z,7.60
2019-04-28T00:55:31.999Z,7.70
2019-04-28T00:58:01.219Z,7.70
2019-04-28T01:00:31.941Z,7.70
2019-04-28T01:03:02.202Z,7.70
2019-04-28T01:05:31.489Z,7.70
2019-04-28T01:08:01.134Z,7.70
2019-04-28T01:10:31.798Z,7.80
2019-04-28T01:13:02.119Z,7.80
2019-04-28T01:15:33.204Z,7.80
2019-04-28T01:18:15.562Z,7.70
2019-04-28T01:20:45.019Z,7.70
2019-04-28T01:23:14.144Z,7.60
2019-04-28T01:25:43.220Z,7.60
2019-04-28T01:28:12.271Z,7.50
2019-04-28T01:30:43.088Z,7.50
2019-04-28T01:33:20.569Z,7.40
2019-04-28T01:35:49.750Z,7.40
2019-04-28T01:38:20.454Z,7.30
2019-04-28T01:40:50.034Z,7.40
2019-04-28T01:43:19.600Z,7.30
2019-04-28T01:45:50.236Z,7.20
2019-04-28T01:48:19.922Z,7.20
2019-04-28T01:50:49.989Z,7.20
2019-04-28T01:53:19.887Z,7.20
2019-04-28T01:55:49.543Z,7.30
2019-04-28T01:58:20.439Z,7.30
2019-04-28T02:00:50.537Z,7.30
2019-04-28T02:03:20.576Z,7.30
2019-04-28T02:05:50.225Z,7.30
2019-04-28T02:08:20.286Z,7.30
2019-04-28T02:10:50.190Z,7.40
2019-04-28T02:13:19.899Z,7.40
2019-04-28T02:15:50.084Z,7.40
2019-04-28T02:18:19.920Z,7.40
2019-04-28T02:20:51.126Z,7.40
2019-04-28T02:23:22.074Z,7.50
2019-04-28T02:25:52.564Z,7.40
2019-04-28T02:28:21.599Z,7.50
2019-04-28T02:30:53.838Z,7.40
2019-04-28T02:33:21.316Z,7.40
2019-04-28T02:35:51.194Z,7.40
2019-04-28T02:38:20.980Z,7.40
2019-04-28T02:40:50.663Z,7.50
2019-04-28T02:43:20.944Z,7.50
2019-04-28T02:45:53.430Z,7.40
2019-04-28T02:48:23.217Z,7.40
2019-04-28T02:50:53.816Z,7.50
2019-04-28T02:53:33.235Z,7.50
2019-04-28T02:56:00.906Z,7.50
2019-04-28T02:58:31.280Z,7.50
2019-04-28T03:01:09.775Z,7.40
2019-04-28T03:03:31.430Z,7.40
2019-04-28T03:06:01.498Z,7.40
2019-04-28T03:08:30.884Z,7.40
2019-04-28T03:11:00.876Z,7.40
2019-04-28T03:13:31.134Z,7.40
2019-04-28T03:16:01.508Z,7.30
2019-04-28T03:18:31.841Z,7.30
2019-04-28T03:21:04.056Z,7.30
2019-04-28T03:23:31.983Z,7.30
2019-04-28T03:26:10.958Z,7.30
2019-04-28T03:28:57.446Z,7.30
2019-04-28T03:32:03.768Z,7.40
2019-04-28T03:34:12.975Z,7.30
2019-04-28T03:36:41.834Z,7.30
2019-04-28T03:39:11.147Z,7.30
2019-04-28T03:41:40.774Z,7.30
2019-04-28T03:44:11.500Z,7.30
2019-04-28T03:46:42.463Z,7.30
2019-04-28T03:49:13.158Z,7.20
2019-04-28T03:51:42.286Z,7.20
2019-04-28T03:54:11.422Z,7.20
2019-04-28T03:56:41.321Z,7.20
2019-04-28T03:59:10.509Z,7.20
2019-04-28T04:01:52.980Z,7.20
2019-04-28T04:04:11.338Z,7.10
2019-04-28T04:06:40.921Z,7.10
2019-04-28T04:09:11.300Z,7.10
2019-04-28T04:11:42.042Z,7.10
2019-04-28T04:14:14.336Z,7.10
2019-04-28T04:16:50.080Z,7.10
2019-04-28T04:19:20.315Z,7.10
2019-04-28T04:21:52.804Z,7.10
2019-04-28T04:24:21.658Z,7.00
2019-04-28T04:26:50.932Z,6.90
2019-04-28T04:29:21.678Z,6.90
2019-04-28T04:31:51.266Z,7.00
2019-04-28T04:34:20.449Z,6.80
2019-04-28T04:36:50.934Z,6.90
2019-04-28T04:39:20.663Z,7.00
2019-04-28T04:41:50.496Z,7.00
2019-04-28T04:44:21.074Z,7.00
2019-04-28T04:46:50.932Z,7.00
2019-04-28T04:49:21.593Z,6.90
2019-04-28T04:51:51.121Z,6.90
2019-04-28T04:54:20.557Z,7.00
2019-04-28T04:56:50.192Z,7.00
2019-04-28T04:59:20.315Z,7.10
2019-04-28T05:02:09.929Z,7.10
2019-04-28T05:04:44.511Z,6.90
2019-04-28T05:07:13.540Z,7.00
2019-04-28T05:09:42.532Z,7.00
2019-04-28T05:12:11.711Z,7.00
2019-04-28T05:14:40.742Z,7.00
2019-04-28T05:17:10.408Z,7.00
2019-04-28T05:19:40.247Z,7.00
2019-04-28T05:22:10.296Z,7.00
2019-04-28T05:24:41.002Z,7.00
2019-04-28T05:27:10.237Z,7.00
2019-04-28T05:29:39.762Z,7.00
2019-04-28T05:32:10.822Z,7.00
2019-04-28T05:34:46.607Z,7.00
2019-04-28T05:37:10.927Z,7.10
2019-04-28T05:39:40.539Z,7.20
2019-04-28T05:42:11.338Z,7.30
2019-04-28T05:44:40.942Z,7.40
2019-04-28T05:47:10.177Z,7.30
2019-04-28T05:49:43.331Z,7.40
2019-04-28T05:52:32.346Z,7.40
2019-04-28T05:55:05.944Z,7.50
2019-04-28T05:57:36.608Z,7.60
2019-04-28T06:00:19.645Z,7.70
2019-04-28T06:02:56.483Z,7.80
2019-04-28T06:05:20.629Z,7.90
2019-04-28T06:07:54.885Z,8.00
2019-04-28T06:10:23.847Z,8.00
2019-04-28T06:12:52.857Z,8.10
2019-04-28T06:15:21.860Z,8.20
2019-04-28T06:17:50.838Z,8.30
2019-04-28T06:20:20.240Z,8.00
2019-04-28T06:22:49.243Z,8.10
2019-04-28T06:25:18.216Z,8.00
2019-04-28T06:27:47.292Z,7.90
2019-04-28T06:30:16.503Z,7.70
2019-04-28T06:32:45.533Z,7.60
2019-04-28T06:35:14.482Z,7.70
2019-04-28T06:37:43.478Z,7.90
2019-04-28T06:40:12.616Z,7.80
2019-04-28T06:42:41.762Z,7.70
2019-04-28T06:45:11.071Z,7.80
2019-04-28T06:47:40.069Z,7.90
2019-04-28T06:50:09.440Z,8.00
2019-04-28T06:52:38.720Z,7.90
2019-04-28T06:55:07.909Z,7.80
2019-04-28T06:57:36.960Z,7.80
2019-04-28T07:00:07.190Z,7.70
2019-04-28T07:02:36.383Z,7.80
2019-04-28T07:05:07.143Z,7.90
2019-04-28T07:07:36.389Z,7.80
2019-04-28T07:10:08.890Z,7.80
2019-04-28T07:12:38.181Z,7.80
2019-04-28T07:15:07.588Z,7.80
2019-04-28T07:17:36.604Z,7.90
2019-04-28T07:20:08.325Z,7.90
2019-04-28T07:22:37.546Z,8.00
2019-04-28T07:25:07.120Z,8.00
2019-04-28T07:27:36.111Z,7.90
2019-04-28T07:30:07.002Z,7.90
2019-04-28T07:32:36.346Z,8.00
2019-04-28T07:35:06.519Z,8.00
2019-04-28T07:37:35.569Z,7.90
2019-04-28T07:40:06.721Z,7.80
2019-04-28T07:42:36.166Z,7.60
2019-04-28T07:45:07.146Z,7.60
2019-04-28T07:47:36.097Z,7.60
2019-04-28T07:50:06.530Z,7.70
2019-04-28T07:52:37.127Z,7.70
2019-04-28T07:55:07.464Z,7.60
2019-04-28T07:57:36.922Z,7.60
2019-04-28T08:00:06.815Z,7.60
2019-04-28T08:02:36.159Z,7.60
2019-04-28T08:05:06.525Z,7.60
2019-04-28T08:07:35.564Z,7.70
2019-04-28T08:10:05.265Z,7.70
2019-04-28T08:12:34.430Z,7.80
2019-04-28T08:15:03.945Z,7.80
2019-04-28T08:17:32.900Z,7.90
2019-04-28T08:20:01.904Z,8.00
2019-04-28T08:22:30.899Z,8.10
2019-04-28T08:24:59.865Z,8.10
2019-04-28T08:27:30.023Z,7.90
2019-04-28T08:30:00.185Z,7.80
2019-04-28T08:32:33.769Z,7.80
2019-04-28T08:35:03.074Z,7.90
2019-04-28T08:37:32.140Z,8.10
2019-04-28T08:40:01.382Z,8.30
2019-04-28T08:42:30.608Z,8.50
2019-04-28T08:44:59.917Z,8.60
2019-04-28T08:47:29.005Z,8.80
2019-04-28T08:49:58.335Z,9.00
2019-04-28T08:52:27.355Z,8.90
2019-04-28T08:54:56.418Z,9.00
2019-04-28T08:57:25.625Z,9.10
2019-04-28T08:59:54.618Z,9.10
2019-04-28T09:02:24.204Z,9.20
2019-04-28T09:04:53.292Z,9.20
2019-04-28T09:07:22.531Z,9.20
2019-04-28T09:09:52.026Z,9.30
2019-04-28T09:12:21.124Z,9.40
2019-04-28T09:14:50.154Z,9.40
2019-04-28T09:17:19.294Z,9.30
2019-04-28T09:19:48.398Z,9.20
2019-04-28T09:22:17.368Z,9.20
2019-04-28T09:24:46.419Z,9.20
2019-04-28T09:27:15.564Z,9.30
2019-04-28T09:29:44.612Z,9.30
2019-04-28T09:32:13.725Z,9.30
2019-04-28T09:34:42.667Z,9.40
2019-04-28T09:37:11.697Z,9.50
2019-04-28T09:39:42.296Z,9.50
2019-04-28T09:42:30.942Z,9.50
2019-04-28T09:45:05.174Z,9.60
2019-04-28T09:47:34.385Z,9.60
2019-04-28T09:50:04.737Z,9.70
2019-04-28T09:52:33.895Z,9.80
2019-04-28T09:55:02.902Z,9.90
2019-04-28T09:57:32.156Z,9.90
2019-04-28T10:00:01.303Z,10.00
2019-04-28T10:02:30.520Z,10.10
2019-04-28T10:04:59.831Z,10.10
2019-04-28T10:07:28.872Z,10.20
2019-04-28T10:09:57.892Z,10.40
2019-04-28T10:12:27.540Z,10.60
2019-04-28T10:14:56.862Z,10.70
2019-04-28T10:17:26.131Z,10.80
2019-04-28T10:19:55.280Z,11.00
2019-04-28T10:22:24.440Z,11.10
2019-04-28T10:24:53.646Z,11.00
2019-04-28T10:27:22.910Z,11.00
2019-04-28T10:29:54.108Z,11.20
2019-04-28T10:32:23.151Z,11.30
2019-04-28T10:34:55.085Z,11.20
2019-04-28T10:37:23.316Z,11.50
2019-04-28T10:39:56.627Z,11.70
2019-04-28T10:42:26.032Z,11.90
2019-04-28T10:44:55.473Z,11.60
2019-04-28T10:47:24.775Z,11.60
2019-04-28T10:49:54.149Z,11.70
2019-04-28T10:52:23.117Z,11.80
2019-04-28T10:54:52.193Z,11.80
2019-04-28T10:57:21.318Z,11.90
2019-04-28T10:59:50.615Z,12.10
2019-04-28T11:02:19.719Z,12.10
2019-04-28T11:04:50.345Z,12.10
2019-04-28T11:07:20.139Z,12.10
2019-04-28T11:09:50.766Z,12.10
2019-04-28T11:12:24.661Z,12.10
2019-04-28T11:14:53.790Z,12.10
2019-04-28T11:17:23.918Z,12.00
2019-04-28T11:19:52.912Z,12.00
2019-04-28T11:22:22.275Z,11.80
2019-04-28T11:24:51.594Z,11.80
2019-04-28T11:27:21.001Z,11.60
2019-04-28T11:29:50.314Z,11.40
2019-04-28T11:32:19.475Z,11.40
2019-04-28T11:34:50.288Z,11.30
2019-04-28T11:37:19.346Z,11.20
2019-04-28T11:39:48.321Z,11.10
2019-04-28T11:42:17.374Z,11.00
2019-04-28T11:44:46.500Z,10.80
2019-04-28T11:47:20.643Z,10.50
2019-04-28T11:49:49.889Z,10.50
2019-04-28T11:52:18.893Z,10.50
2019-04-28T11:54:48.023Z,10.40
2019-04-28T11:57:17.239Z,10.40
2019-04-28T11:59:47.159Z,10.10
2019-04-28T12:02:16.211Z,10.00
2019-04-28T12:04:45.293Z,10.00
2019-04-28T12:07:14.464Z,10.20
2019-04-28T12:10:05.839Z,10.30
2019-04-28T12:12:49.244Z,10.30
2019-04-28T12:15:37.754Z,10.60
2019-04-28T12:18:11.684Z,10.80
2019-04-28T12:20:41.596Z,11.00
2019-04-28T12:23:11.290Z,11.10
2019-04-28T12:25:40.229Z,11.20
2019-04-28T12:28:09.209Z,11.10
2019-04-28T12:30:38.151Z,11.20
2019-04-28T12:33:07.285Z,11.30
2019-04-28T12:35:47.098Z,11.20
2019-04-28T12:38:07.128Z,11.30
2019-04-28T12:40:36.094Z,11.50
2019-04-28T12:43:05.193Z,11.80
2019-04-28T12:45:35.190Z,12.00
2019-04-28T12:48:04.648Z,12.10
2019-04-28T12:50:41.496Z,12.30
2019-04-28T12:53:10.641Z,12.20
2019-04-28T12:55:39.773Z,12.30
2019-04-28T12:58:08.804Z,12.20
2019-04-28T13:00:39.487Z,12.20
2019-04-28T13:03:16.185Z,12.30
2019-04-28T13:05:46.901Z,12.30
2019-04-28T13:08:17.142Z,12.30
2019-04-28T13:10:47.708Z,12.20
2019-04-28T13:13:16.725Z,12.10
2019-04-28T13:15:45.947Z,11.70
2019-04-28T13:18:14.988Z,11.60
2019-04-28T13:20:44.083Z,11.60
2019-04-28T13:23:13.310Z,11.50
2019-04-28T13:25:42.364Z,11.30
2019-04-28T13:28:12.056Z,11.30
2019-04-28T13:30:41.273Z,11.20
2019-04-28T13:33:10.366Z,11.20
2019-04-28T13:35:39.454Z,11.30
2019-04-28T13:38:08.644Z,11.40
2019-04-28T13:40:39.353Z,11.40
2019-04-28T13:43:08.766Z,11.50
2019-04-28T13:45:38.126Z,11.60
2019-04-28T13:48:07.215Z,11.60
2019-04-28T13:50:37.555Z,11.70
2019-04-28T13:53:07.358Z,11.70
2019-04-28T13:55:47.391Z,11.80
2019-04-28T13:58:18.666Z,11.90
2019-04-28T14:00:49.695Z,12.00
2019-04-28T14:03:20.486Z,12.00
2019-04-28T14:05:54.285Z,12.00
2019-04-28T14:08:23.520Z,11.80
2019-04-28T14:10:52.718Z,11.10
2019-04-28T14:13:21.746Z,10.50
2019-04-28T14:15:50.771Z,10.30
2019-04-28T14:18:20.023Z,10.00
2019-04-28T14:20:49.138Z,9.90
2019-04-28T14:23:18.397Z,9.90
2019-04-28T14:25:47.849Z,9.90
2019-04-28T14:28:16.813Z,9.80
2019-04-28T14:30:45.938Z,9.80
2019-04-28T14:33:16.654Z,9.90
2019-04-28T14:35:45.937Z,10.10
2019-04-28T14:38:15.099Z,10.10
2019-04-28T14:40:44.334Z,9.90
2019-04-28T14:43:13.398Z,9.80
2019-04-28T14:45:42.824Z,9.80
2019-04-28T14:48:11.920Z,9.70
2019-04-28T14:50:42.433Z,9.80
2019-04-28T14:53:11.533Z,9.70
2019-04-28T14:55:40.889Z,9.70
2019-04-28T14:58:09.909Z,9.70
2019-04-28T15:00:40.659Z,9.80
2019-04-28T15:03:16.821Z,9.80
2019-04-28T15:05:50.470Z,10.00
2019-04-28T15:08:39.711Z,10.30
2019-04-28T15:11:28.746Z,10.40
2019-04-28T15:13:57.793Z,10.50
2019-04-28T15:16:28.165Z,10.60
2019-04-28T15:18:57.199Z,10.70
2019-04-28T15:21:26.234Z,10.90
2019-04-28T15:23:55.180Z,11.10
2019-04-28T15:26:24.289Z,11.00
2019-04-28T15:28:53.309Z,11.20
2019-04-28T15:31:22.473Z,11.20
2019-04-28T15:33:51.580Z,11.00
2019-04-28T15:36:21.346Z,11.00
2019-04-28T15:38:50.410Z,11.00
2019-04-28T15:41:21.930Z,11.10
2019-04-28T15:43:50.608Z,11.20
2019-04-28T15:46:19.710Z,11.30
2019-04-28T15:48:48.836Z,11.40
2019-04-28T15:51:18.225Z,11.40
2019-04-28T15:53:48.516Z,11.50
2019-04-28T15:56:19.226Z,11.50
2019-04-28T15:58:48.539Z,11.50
2019-04-28T16:01:17.591Z,11.60
2019-04-28T16:03:46.694Z,11.80
2019-04-28T16:06:15.830Z,11.90
2019-04-28T16:08:44.993Z,12.00
2019-04-28T16:11:14.117Z,12.10
2019-04-28T16:13:43.125Z,12.10
2019-04-28T16:16:12.307Z,12.20
2019-04-28T16:18:41.503Z,12.20
2019-04-28T16:21:10.763Z,12.10
2019-04-28T16:23:40.101Z,12.10
2019-04-28T16:26:09.435Z,12.10
2019-04-28T16:28:38.576Z,12.00
2019-04-28T16:31:07.697Z,12.00
2019-04-28T16:33:36.932Z,12.20
2019-04-28T16:36:06.423Z,12.10
2019-04-28T16:38:35.503Z,12.10
2019-04-28T16:41:06.385Z,12.10
2019-04-28T16:43:38.665Z,12.00
2019-04-28T16:46:07.777Z,12.00
2019-04-28T16:48:36.981Z,12.10
2019-04-28T16:51:06.057Z,12.10
2019-04-28T16:53:35.719Z,12.10
2019-04-28T16:56:15.296Z,12.20
2019-04-28T16:58:46.324Z,12.20
2019-04-28T17:01:26.320Z,12.20
2019-04-28T17:03:55.278Z,12.00
2019-04-28T17:06:24.525Z,11.80
2019-04-28T17:08:53.696Z,11.80
2019-04-28T17:11:22.884Z,11.80
2019-04-28T17:13:51.900Z,11.70
2019-04-28T17:16:21.084Z,11.60
2019-04-28T17:18:50.394Z,11.50
2019-04-28T17:21:19.529Z,11.30
2019-04-28T17:23:48.688Z,11.20
2019-04-28T17:26:17.825Z,11.10
2019-04-28T17:28:47.184Z,11.00
2019-04-28T17:31:16.415Z,10.80
2019-04-28T17:33:45.561Z,10.60
2019-04-28T17:36:14.788Z,10.60
2019-04-28T17:38:43.860Z,10.50
2019-04-28T17:41:12.988Z,10.40
2019-04-28T17:43:42.452Z,10.40
2019-04-28T17:46:11.644Z,10.30
2019-04-28T17:48:42.357Z,10.30
2019-04-28T17:51:11.483Z,10.30
2019-04-28T17:53:40.567Z,10.30
2019-04-28T17:56:09.673Z,10.30
2019-04-28T17:58:38.620Z,10.20
2019-04-28T18:01:26.140Z,10.20
2019-04-28T18:03:56.893Z,10.30
2019-04-28T18:06:27.650Z,10.30
2019-04-28T18:08:56.691Z,10.20
2019-04-28T18:11:26.010Z,10.30
2019-04-28T18:13:55.114Z,10.20
2019-04-28T18:16:42.463Z,10.20
2019-04-28T18:19:13.288Z,10.20
2019-04-28T18:21:42.409Z,10.20
2019-04-28T18:24:11.431Z,10.20
2019-04-28T18:26:40.530Z,10.20
2019-04-28T18:29:09.504Z,10.20
2019-04-28T18:31:42.906Z,10.10
2019-04-28T18:34:16.150Z,10.00
2019-04-28T18:37:03.285Z,10.00
2019-04-28T18:39:50.095Z,10.00
2019-04-28T18:42:20.956Z,9.90
2019-04-28T18:44:50.116Z,9.80
2019-04-28T18:47:19.234Z,9.70
2019-04-28T18:49:48.213Z,9.80
2019-04-28T18:52:17.197Z,9.80
2019-04-28T18:54:46.165Z,9.70
2019-04-28T18:57:15.204Z,9.70
2019-04-28T18:59:44.422Z,9.70
2019-04-28T19:02:21.297Z,9.70
2019-04-28T19:04:50.588Z,9.70
2019-04-28T19:07:21.267Z,9.60
2019-04-28T19:09:54.896Z,9.60
2019-04-28T19:12:25.555Z,9.70
2019-04-28T19:14:58.925Z,9.70
2019-04-28T19:17:35.132Z,9.70
2019-04-28T19:20:04.826Z,9.70
2019-04-28T19:22:35.464Z,9.70
2019-04-28T19:25:05.926Z,9.70
2019-04-28T19:27:34.893Z,9.70
2019-04-28T19:30:05.088Z,9.60
2019-04-28T19:32:34.144Z,9.40
2019-04-28T19:35:03.329Z,9.40
2019-04-28T19:37:32.279Z,9.40
2019-04-28T19:40:01.336Z,9.40
2019-04-28T19:42:30.497Z,9.30
2019-04-28T19:44:59.604Z,9.30
2019-04-28T19:47:28.687Z,9.30
2019-04-28T19:49:57.675Z,9.30
2019-04-28T19:52:26.862Z,9.20
2019-04-28T19:55:06.491Z,9.20
2019-04-28T19:57:45.824Z,9.20
2019-04-28T20:00:17.577Z,9.20
2019-04-28T20:02:46.616Z,9.20
2019-04-28T20:05:15.880Z,9.20
2019-04-28T20:07:44.813Z,9.20
2019-04-28T20:10:14.473Z,9.20
2019-04-28T20:12:43.526Z,9.10
2019-04-28T20:15:12.642Z,9.10
2019-04-28T20:17:41.666Z,9.10
2019-04-28T20:20:10.819Z,9.10
2019-04-28T20:22:39.877Z,9.10
2019-04-28T20:25:09.346Z,9.20
2019-04-28T20:27:38.347Z,9.20
2019-04-28T20:30:08.215Z,9.20
2019-04-28T20:32:46.924Z,9.20
2019-04-28T20:35:20.484Z,9.20
2019-04-28T20:37:54.351Z,9.20
2019-04-28T20:40:37.502Z,9.20
2019-04-28T20:43:10.787Z,9.20
2019-04-28T20:45:40.147Z,9.20
2019-04-28T20:48:09.250Z,9.20
2019-04-28T20:50:38.357Z,9.00
2019-04-28T20:53:07.762Z,9.00
2019-04-28T20:55:36.867Z,9.10
2019-04-28T20:58:05.989Z,9.00
2019-04-28T21:00:35.250Z,9.00
2019-04-28T21:03:04.633Z,9.10
2019-04-28T21:05:33.641Z,9.00
2019-04-28T21:08:02.922Z,8.90
2019-04-28T21:10:38.054Z,8.80
2019-04-28T21:13:02.844Z,8.80
2019-04-28T21:15:31.787Z,8.70
2019-04-28T21:18:00.957Z,8.60
2019-04-28T21:20:29.904Z,8.60
2019-04-28T21:22:58.854Z,8.40
2019-04-28T21:25:27.799Z,8.30
2019-04-28T21:27:56.771Z,8.30
2019-04-28T21:30:25.887Z,8.30
2019-04-28T21:32:54.864Z,8.30
2019-04-28T21:35:24.100Z,8.20
2019-04-28T21:37:53.053Z,8.20
2019-04-28T21:40:22.533Z,8.20
2019-04-28T21:43:11.221Z,8.20
2019-04-28T21:45:50.401Z,8.30
2019-04-28T21:48:38.533Z,8.20
2019-04-28T21:51:07.697Z,8.10
2019-04-28T21:53:36.774Z,8.00
2019-04-28T21:56:05.991Z,8.00
2019-04-28T21:58:34.973Z,8.00
2019-04-28T22:01:05.127Z,8.00
2019-04-28T22:03:34.219Z,8.00
2019-04-28T22:06:04.894Z,8.00
2019-04-28T22:08:34.069Z,8.00
2019-04-28T22:11:03.184Z,8.10
2019-04-28T22:13:32.368Z,8.10
2019-04-28T22:16:01.578Z,8.00
2019-04-28T22:18:30.893Z,7.90
2019-04-28T22:20:59.836Z,7.90
2019-04-28T22:23:36.643Z,8.00
2019-04-28T22:26:05.987Z,8.00
2019-04-28T22:28:35.004Z,8.00
2019-04-28T22:31:04.098Z,8.10
2019-04-28T22:33:33.049Z,8.10
2019-04-28T22:36:02.316Z,8.10
2019-04-28T22:38:31.282Z,8.10
2019-04-28T22:41:00.679Z,8.20
2019-04-28T22:43:29.685Z,8.10
2019-04-28T22:45:58.733Z,8.10
2019-04-28T22:48:27.680Z,8.10
2019-04-28T22:50:56.723Z,8.20
2019-04-28T22:53:27.490Z,8.20
2019-04-28T22:55:58.752Z,8.30
2019-04-28T22:58:32.409Z,8.30
2019-04-28T23:01:03.164Z,8.30
2019-04-28T23:03:36.314Z,8.40
2019-04-28T23:06:05.387Z,8.40
2019-04-28T23:08:34.632Z,8.40
2019-04-28T23:11:03.738Z,8.40
2019-04-28T23:13:32.799Z,8.40
2019-04-28T23:16:02.133Z,8.50
2019-04-28T23:18:31.148Z,8.50
2019-04-28T23:21:01.861Z,8.50
2019-04-28T23:23:31.004Z,8.50
2019-04-28T23:26:02.913Z,8.50
2019-04-28T23:28:30.845Z,8.50
2019-04-28T23:30:59.913Z,8.50
2019-04-28T23:33:29.130Z,8.40
2019-04-28T23:35:58.193Z,8.40
2019-04-28T23:38:27.242Z,8.40
2019-04-28T23:41:10.068Z,8.40
2019-04-28T23:43:39.131Z,8.40
2019-04-28T23:46:08.428Z,8.40
2019-04-28T23:48:37.534Z,8.40
2019-04-28T23:51:11.071Z,8.40
2019-04-28T23:53:44.875Z,8.40
2019-04-28T23:56:14.068Z,8.40
2019-04-28T23:58:43.156Z,8.40
